Time;durP1;ratioP1;P1;durP2;ratioP2;P2;SDS_P1;SDS_P2;PMS_P1;PMS_P2;Temp;Humidity;BMP_temperature;BMP_pressure;BME280_temperature;BME280_humidity;BME280_pressure;Samples;Min_cycle;Max_cycle;Signal;HPM_P1;HPM_P2
2023/07/01 00:01:40;;;;;;;6.47;2.70;;;18.80;99.90;;;;;;5058385;28;20128;-57
2023/07/01 00:04:05;;;;;;;5.95;2.83;;;18.80;99.90;;;;;;5065289;28;20036;-57
2023/07/01 00:06:31;;;;;;;6.25;2.85;;;18.90;99.90;;;;;;5069636;28;20040;-56
2023/07/01 00:08:57;;;;;;;7.47;2.70;;;18.90;99.90;;;;;;5067679;28;20032;-57
2023/07/01 00:11:22;;;;;;;3.80;2.30;;;19.00;99.90;;;;;;5069266;28;20029;-57
2023/07/01 00:13:48;;;;;;;4.80;2.25;;;19.10;99.90;;;;;;5069594;28;20127;-56
2023/07/01 00:16:14;;;;;;;6.30;2.90;;;19.10;99.90;;;;;;5070114;28;20044;-56
2023/07/01 00:18:41;;;;;;;10.68;2.70;;;19.00;99.90;;;;;;5069647;28;20052;-56
2023/07/01 00:21:07;;;;;;;7.78;2.60;;;18.80;99.90;;;;;;5068555;28;20029;-57
2023/07/01 00:23:32;;;;;;;6.38;2.25;;;18.70;99.90;;;;;;5069899;28;20090;-56
2023/07/01 00:25:58;;;;;;;7.32;2.90;;;18.70;99.90;;;;;;5069034;28;20416;-56
2023/07/01 00:28:24;;;;;;;6.20;2.55;;;18.70;99.90;;;;;;5068772;28;20085;-56
2023/07/01 00:30:49;;;;;;;5.35;2.58;;;18.70;99.90;;;;;;5068751;28;20043;-57
2023/07/01 00:33:15;;;;;;;7.75;2.60;;;18.70;99.90;;;;;;5069117;28;20093;-56
2023/07/01 00:35:41;;;;;;;7.38;2.65;;;18.70;99.90;;;;;;5069000;28;20442;-56
2023/07/01 00:38:06;;;;;;;5.68;2.60;;;18.70;99.90;;;;;;5068660;28;20059;-57
2023/07/01 00:40:32;;;;;;;4.28;2.40;;;18.70;99.90;;;;;;5069680;28;20036;-56
2023/07/01 00:42:57;;;;;;;5.90;2.60;;;18.70;99.90;;;;;;5067887;28;20082;-57
2023/07/01 00:45:24;;;;;;;7.65;2.55;;;18.70;99.90;;;;;;5069855;28;20098;-57
2023/07/01 00:47:50;;;;;;;9.38;2.72;;;18.80;99.90;;;;;;5069692;28;20032;-56
2023/07/01 00:50:16;;;;;;;7.20;2.85;;;18.80;99.90;;;;;;5068951;28;20032;-56
2023/07/01 00:52:42;;;;;;;4.82;2.50;;;18.70;99.90;;;;;;5064523;28;20041;-57
2023/07/01 00:55:10;;;;;;;5.82;2.45;;;18.60;99.90;;;;;;5048591;28;20033;-57
2023/07/01 00:57:35;;;;;;;5.70;2.58;;;18.60;99.90;;;;;;5068725;28;20032;-57
2023/07/01 01:00:04;;;;;;;11.77;2.50;;;18.70;99.90;;;;;;5069190;28;20043;-56
2023/07/01 01:02:37;;;;;;;5.38;2.70;;;18.70;99.90;;;;;;5068386;28;20550;-56
2023/07/01 01:05:12;;;;;;;6.88;2.90;;;18.70;99.90;;;;;;5067059;28;20024;-57
2023/07/01 01:08:11;;;;;;;5.50;2.80;;;18.60;99.90;;;;;;5068745;28;20052;-56
2023/07/01 01:10:41;;;;;;;8.07;2.70;;;18.50;99.90;;;;;;5068247;28;20032;-56
2023/07/01 01:13:07;;;;;;;6.35;3.03;;;18.50;99.90;;;;;;5067999;28;20056;-56
2023/07/01 01:15:33;;;;;;;4.60;2.60;;;18.50;99.90;;;;;;5068752;28;20123;-57
2023/07/01 01:18:05;;;;;;;8.02;2.50;;;18.50;99.90;;;;;;5067797;28;20051;-57
2023/07/01 01:20:33;;;;;;;6.03;2.63;;;18.60;99.90;;;;;;5067078;28;20104;-57
2023/07/01 01:23:06;;;;;;;6.90;2.65;;;18.50;99.90;;;;;;5068633;28;20492;-56
2023/07/01 01:25:34;;;;;;;7.63;2.65;;;18.50;99.90;;;;;;5066662;28;20035;-56
2023/07/01 01:28:00;;;;;;;8.00;2.70;;;18.60;99.90;;;;;;5068023;28;20626;-56
2023/07/01 01:30:31;;;;;;;8.75;2.92;;;18.60;99.90;;;;;;5067489;28;20060;-56
2023/07/01 01:32:57;;;;;;;6.00;2.83;;;18.70;99.90;;;;;;5068391;28;20044;-57
2023/07/01 01:35:22;;;;;;;8.43;2.65;;;18.70;99.90;;;;;;5066147;28;20094;-57
2023/07/01 01:38:15;;;;;;;7.15;2.40;;;18.60;99.90;;;;;;5054774;28;20053;-57
2023/07/01 01:41:03;;;;;;;9.05;3.00;;;18.50;99.90;;;;;;5066631;28;20119;-57
2023/07/01 01:43:58;;;;;;;6.93;2.80;;;18.50;99.90;;;;;;5066482;28;20045;-57
2023/07/01 01:46:25;;;;;;;5.72;2.83;;;18.50;99.90;;;;;;5068365;28;20033;-56
2023/07/01 01:48:54;;;;;;;7.15;2.80;;;18.40;99.90;;;;;;5053953;28;20041;-56
2023/07/01 01:51:22;;;;;;;7.53;2.55;;;18.30;99.90;;;;;;5065606;28;20044;-57
2023/07/01 01:53:50;;;;;;;5.13;2.80;;;18.40;99.90;;;;;;5067991;28;20024;-56
2023/07/01 01:56:16;;;;;;;5.75;2.45;;;18.50;99.90;;;;;;5067258;28;20032;-56
2023/07/01 01:58:42;;;;;;;7.40;2.92;;;18.50;99.90;;;;;;5065618;28;20400;-56
2023/07/01 02:01:08;;;;;;;4.07;2.33;;;18.30;99.90;;;;;;5066962;28;20089;-57
2023/07/01 02:03:33;;;;;;;4.68;2.40;;;18.40;99.90;;;;;;5067698;28;20478;-57
2023/07/01 02:05:59;;;;;;;5.18;2.40;;;18.30;99.90;;;;;;5067560;28;20515;-56
2023/07/01 02:08:24;;;;;;;6.05;2.47;;;18.40;99.90;;;;;;5066929;28;20472;-56
2023/07/01 02:10:50;;;;;;;6.82;2.50;;;18.30;99.90;;;;;;5066655;28;20033;-57
2023/07/01 02:13:15;;;;;;;5.50;2.40;;;18.30;99.90;;;;;;5066797;28;20412;-57
2023/07/01 02:15:41;;;;;;;5.00;2.30;;;18.30;99.90;;;;;;5068667;28;20315;-57
2023/07/01 02:18:06;;;;;;;6.25;2.30;;;18.40;99.90;;;;;;5066903;28;20085;-56
2023/07/01 02:20:32;;;;;;;8.23;2.80;;;18.50;99.90;;;;;;5066956;28;20337;-56
2023/07/01 02:22:58;;;;;;;4.13;2.15;;;18.60;99.90;;;;;;5067250;28;20124;-56
2023/07/01 02:25:23;;;;;;;4.50;2.10;;;18.60;99.90;;;;;;5066582;28;20463;-56
2023/07/01 02:27:49;;;;;;;5.43;2.40;;;18.40;99.90;;;;;;5066266;28;20036;-56
2023/07/01 02:30:14;;;;;;;4.18;2.20;;;18.40;99.90;;;;;;5065472;28;20468;-56
2023/07/01 02:32:40;;;;;;;5.35;2.03;;;18.40;99.90;;;;;;5067143;28;20090;-56
2023/07/01 02:35:06;;;;;;;4.00;2.28;;;18.40;99.90;;;;;;5066134;28;20094;-56
2023/07/01 02:37:32;;;;;;;5.35;2.30;;;18.40;99.90;;;;;;5066829;28;20037;-56
2023/07/01 02:39:57;;;;;;;8.40;2.60;;;18.40;99.90;;;;;;5067136;28;20450;-57
2023/07/01 02:42:23;;;;;;;3.83;2.10;;;18.50;99.90;;;;;;5065158;28;20025;-57
2023/07/01 02:44:49;;;;;;;3.88;2.00;;;18.50;99.90;;;;;;5066573;28;20032;-57
2023/07/01 02:47:16;;;;;;;5.13;2.38;;;18.50;99.90;;;;;;5066246;28;20429;-57
2023/07/01 02:49:42;;;;;;;4.72;2.40;;;18.50;99.90;;;;;;5066798;28;20550;-56
2023/07/01 02:52:11;;;;;;;6.40;2.45;;;18.60;99.90;;;;;;5065969;28;20040;-56
2023/07/01 02:54:40;;;;;;;3.50;2.10;;;18.60;99.90;;;;;;5066580;28;20460;-56
2023/07/01 02:57:08;;;;;;;3.92;2.38;;;18.70;99.90;;;;;;5065722;28;20037;-56
2023/07/01 02:59:34;;;;;;;5.72;2.13;;;18.70;99.90;;;;;;5066782;28;20048;-56
2023/07/01 03:01:59;;;;;;;4.05;2.15;;;18.80;99.90;;;;;;5066622;28;20053;-56
2023/07/01 03:04:25;;;;;;;3.35;2.00;;;18.80;99.90;;;;;;5065557;28;20024;-56
2023/07/01 03:06:50;;;;;;;4.03;2.10;;;18.70;99.90;;;;;;5066293;28;20389;-56
2023/07/01 03:09:16;;;;;;;4.22;2.08;;;18.60;99.90;;;;;;5066010;28;20040;-57
2023/07/01 03:11:42;;;;;;;6.15;2.40;;;18.70;99.90;;;;;;5066593;28;20060;-56
2023/07/01 03:14:07;;;;;;;4.18;2.00;;;18.70;99.90;;;;;;5065574;28;20048;-57
2023/07/01 03:16:33;;;;;;;2.30;1.90;;;18.80;99.90;;;;;;5065058;28;20037;-56
2023/07/01 03:18:59;;;;;;;3.63;2.03;;;18.70;99.90;;;;;;5066502;28;20037;-56
2023/07/01 03:21:25;;;;;;;7.85;2.20;;;18.80;99.90;;;;;;5065593;28;20028;-57
2023/07/01 03:23:51;;;;;;;3.47;1.90;;;18.80;99.90;;;;;;5066334;28;20037;-57
2023/07/01 03:26:16;;;;;;;5.53;2.30;;;18.80;99.90;;;;;;5056239;28;20036;-56
2023/07/01 03:28:42;;;;;;;6.70;2.00;;;18.80;99.90;;;;;;5045274;28;20033;-57
2023/07/01 03:31:08;;;;;;;4.68;2.20;;;18.90;99.90;;;;;;5053714;28;20036;-57
2023/07/01 03:33:34;;;;;;;5.70;1.98;;;18.70;99.90;;;;;;5066147;28;20040;-56
2023/07/01 03:35:59;;;;;;;3.78;2.15;;;18.80;99.90;;;;;;5066018;28;20044;-56
2023/07/01 03:38:25;;;;;;;6.03;2.42;;;18.80;99.90;;;;;;5046718;28;20044;-56
2023/07/01 03:40:51;;;;;;;5.68;2.70;;;18.70;99.90;;;;;;5065366;28;20029;-56
2023/07/01 03:43:17;;;;;;;3.92;2.45;;;18.70;99.90;;;;;;5065552;28;20029;-56
2023/07/01 03:45:42;;;;;;;3.35;2.10;;;18.70;99.90;;;;;;5065951;28;20144;-56
2023/07/01 03:48:08;;;;;;;8.00;3.00;;;18.60;99.90;;;;;;5064762;28;20122;-57
2023/07/01 03:50:33;;;;;;;4.13;2.22;;;18.50;99.90;;;;;;5065878;28;20075;-56
2023/07/01 03:52:59;;;;;;;3.58;2.10;;;18.60;99.90;;;;;;5065963;28;20032;-56
2023/07/01 03:55:25;;;;;;;8.05;2.00;;;18.60;99.90;;;;;;5064837;28;20089;-56
2023/07/01 03:57:51;;;;;;;4.78;2.25;;;18.50;99.90;;;;;;5066495;28;20492;-56
2023/07/01 04:00:17;;;;;;;3.92;2.25;;;18.60;99.90;;;;;;5049199;28;20043;-56
2023/07/01 04:02:47;;;;;;;4.93;1.90;;;18.70;99.90;;;;;;5064560;28;20084;-56
2023/07/01 04:05:12;;;;;;;3.83;2.25;;;18.70;99.90;;;;;;5064726;28;20032;-56
2023/07/01 04:07:42;;;;;;;4.35;2.30;;;18.70;99.90;;;;;;5065686;28;20028;-56
2023/07/01 04:10:08;;;;;;;4.60;2.17;;;18.70;99.90;;;;;;5064911;28;20048;-56
2023/07/01 04:12:35;;;;;;;4.63;2.15;;;18.70;99.90;;;;;;5065787;28;20032;-56
2023/07/01 04:15:01;;;;;;;4.45;2.20;;;18.60;99.90;;;;;;5066302;28;20078;-57
2023/07/01 04:17:30;;;;;;;3.85;2.00;;;18.70;99.90;;;;;;5065876;28;20033;-57
2023/07/01 04:19:56;;;;;;;3.38;2.10;;;18.80;99.90;;;;;;5065744;28;20048;-56
2023/07/01 04:22:26;;;;;;;5.47;2.45;;;18.80;99.90;;;;;;5064402;28;20583;-57
2023/07/01 04:24:51;;;;;;;5.93;2.35;;;18.80;99.90;;;;;;5065546;28;20477;-56
2023/07/01 04:27:17;;;;;;;4.88;2.30;;;18.90;99.90;;;;;;5065324;28;20025;-57
2023/07/01 04:29:42;;;;;;;5.45;2.33;;;18.70;99.90;;;;;;5065713;28;20033;-56
2023/07/01 04:32:08;;;;;;;4.22;1.92;;;18.80;99.90;;;;;;5063952;28;20051;-56
2023/07/01 04:34:33;;;;;;;3.72;2.10;;;18.90;99.90;;;;;;5065227;28;20041;-56
2023/07/01 04:36:59;;;;;;;6.93;2.38;;;18.80;99.90;;;;;;5065355;28;20052;-57
2023/07/01 04:39:24;;;;;;;8.25;2.60;;;18.80;99.90;;;;;;5065031;28;20086;-57
2023/07/01 04:41:50;;;;;;;5.50;2.50;;;18.80;99.90;;;;;;5065546;28;20401;-57
2023/07/01 04:44:16;;;;;;;5.07;2.40;;;18.90;99.90;;;;;;5064308;28;20492;-56
2023/07/01 04:46:41;;;;;;;7.82;2.63;;;18.90;99.90;;;;;;5066226;28;20427;-56
2023/07/01 04:49:09;;;;;;;4.78;2.00;;;18.90;99.90;;;;;;5065344;28;20036;-57
2023/07/01 04:51:35;;;;;;;5.88;2.40;;;18.80;99.90;;;;;;5066002;28;20098;-57
2023/07/01 04:54:01;;;;;;;5.28;2.17;;;18.70;99.90;;;;;;5060498;28;20366;-56
2023/07/01 04:56:26;;;;;;;4.13;2.28;;;18.60;99.90;;;;;;5059676;28;20032;-56
2023/07/01 04:58:53;;;;;;;5.40;2.60;;;18.70;99.90;;;;;;5068980;28;20419;-56
2023/07/01 05:01:19;;;;;;;4.15;2.00;;;18.70;99.90;;;;;;5068436;28;20510;-56
2023/07/01 05:03:45;;;;;;;4.55;2.33;;;18.80;99.90;;;;;;5068644;28;20036;-56
2023/07/01 05:06:11;;;;;;;7.53;2.25;;;18.70;99.90;;;;;;5067096;28;20035;-56
2023/07/01 05:08:36;;;;;;;6.13;2.38;;;18.80;99.90;;;;;;5068918;28;20032;-56
2023/07/01 05:11:03;;;;;;;7.00;2.53;;;18.80;99.90;;;;;;5068357;28;20115;-56
2023/07/01 05:13:28;;;;;;;6.43;2.35;;;18.90;99.90;;;;;;5066825;28;20506;-57
2023/07/01 05:15:54;;;;;;;5.60;2.50;;;18.90;99.90;;;;;;5062877;28;20037;-57
2023/07/01 05:18:20;;;;;;;6.28;2.30;;;18.80;99.90;;;;;;5062435;28;20071;-56
2023/07/01 05:20:45;;;;;;;6.60;2.22;;;18.80;99.90;;;;;;5068801;28;20025;-57
2023/07/01 05:23:11;;;;;;;5.80;2.90;;;18.80;99.90;;;;;;5068239;28;20029;-56
2023/07/01 05:25:36;;;;;;;7.70;2.50;;;18.90;99.90;;;;;;5068184;28;20033;-56
2023/07/01 05:28:02;;;;;;;5.28;2.60;;;18.90;99.90;;;;;;5052203;28;20492;-56
2023/07/01 05:30:27;;;;;;;6.85;2.40;;;18.70;99.90;;;;;;5050907;28;20429;-55
2023/07/01 05:32:53;;;;;;;6.55;2.50;;;18.80;99.90;;;;;;5068491;28;20044;-56
2023/07/01 05:35:19;;;;;;;3.58;2.38;;;18.60;99.90;;;;;;5067450;28;20329;-55
2023/07/01 05:37:44;;;;;;;3.75;2.35;;;18.60;99.90;;;;;;5067751;28;20429;-55
2023/07/01 05:40:11;;;;;;;7.43;2.72;;;18.50;99.90;;;;;;5067727;28;20035;-55
2023/07/01 05:42:37;;;;;;;9.70;2.80;;;18.60;99.90;;;;;;5067872;28;20037;-55
2023/07/01 05:45:04;;;;;;;4.85;2.53;;;18.50;99.90;;;;;;5067145;28;20504;-54
2023/07/01 05:47:29;;;;;;;5.05;2.78;;;18.50;99.90;;;;;;5068055;28;20044;-55
2023/07/01 05:49:55;;;;;;;4.57;2.40;;;18.50;99.90;;;;;;5067530;28;20039;-55
2023/07/01 05:52:21;;;;;;;4.28;2.53;;;18.30;99.90;;;;;;5067723;28;21908;-55
2023/07/01 05:54:46;;;;;;;4.32;2.60;;;18.30;99.90;;;;;;5067798;28;20488;-55
2023/07/01 05:57:12;;;;;;;3.28;2.58;;;18.30;99.90;;;;;;5067195;28;20032;-55
2023/07/01 05:59:37;;;;;;;5.18;2.40;;;18.20;99.90;;;;;;5066558;28;20127;-55
2023/07/01 06:02:03;;;;;;;4.50;2.45;;;18.20;99.90;;;;;;5066956;28;20064;-54
2023/07/01 06:04:29;;;;;;;7.60;2.40;;;18.20;99.90;;;;;;5067847;28;20040;-56
2023/07/01 06:06:54;;;;;;;6.80;2.80;;;18.20;99.90;;;;;;5067607;28;20040;-55
2023/07/01 06:09:20;;;;;;;5.18;2.72;;;18.30;99.90;;;;;;5065940;28;20476;-55
2023/07/01 06:11:45;;;;;;;4.13;2.80;;;18.20;99.90;;;;;;5053945;28;20273;-54
2023/07/01 06:14:11;;;;;;;7.35;3.05;;;18.10;99.90;;;;;;5047286;28;20036;-54
2023/07/01 06:16:37;;;;;;;4.85;3.15;;;18.00;99.90;;;;;;5062167;28;20063;-56
2023/07/01 06:19:02;;;;;;;6.65;3.05;;;17.90;99.90;;;;;;5058580;28;20037;-55
2023/07/01 06:21:28;;;;;;;6.70;3.17;;;17.90;99.90;;;;;;5066861;28;20206;-55
2023/07/01 06:23:55;;;;;;;6.20;3.10;;;17.80;99.90;;;;;;5067849;28;20038;-55
2023/07/01 06:26:22;;;;;;;5.85;3.00;;;17.90;99.90;;;;;;5066805;28;20033;-55
2023/07/01 06:28:47;;;;;;;6.45;2.97;;;17.80;99.90;;;;;;5066949;28;20055;-55
2023/07/01 06:31:13;;;;;;;4.55;3.00;;;17.90;99.90;;;;;;5066853;28;20032;-56
2023/07/01 06:33:38;;;;;;;6.72;3.08;;;18.00;99.90;;;;;;5066768;28;20040;-55
2023/07/01 06:36:04;;;;;;;5.53;2.97;;;18.00;99.90;;;;;;5066416;28;20028;-60
2023/07/01 06:38:30;;;;;;;5.57;3.63;;;18.00;99.90;;;;;;5067019;28;20029;-55
2023/07/01 06:40:55;;;;;;;6.55;2.72;;;18.00;99.90;;;;;;5067361;28;20406;-55
2023/07/01 06:43:21;;;;;;;4.85;3.00;;;18.10;99.90;;;;;;5064810;28;20238;-55
2023/07/01 06:45:47;;;;;;;5.50;3.10;;;17.90;99.90;;;;;;5068112;28;20127;-55
2023/07/01 06:48:12;;;;;;;7.13;3.20;;;18.00;99.90;;;;;;5066846;28;20039;-56
2023/07/01 06:50:38;;;;;;;6.85;3.30;;;18.00;99.90;;;;;;5066921;28;20051;-55
2023/07/01 06:53:03;;;;;;;4.88;2.70;;;17.90;99.90;;;;;;5065977;28;20045;-55
2023/07/01 06:55:30;;;;;;;7.00;2.97;;;18.00;99.90;;;;;;5065851;28;20488;-55
2023/07/01 06:57:55;;;;;;;7.18;2.92;;;18.00;99.90;;;;;;5066339;28;20082;-55
2023/07/01 07:00:21;;;;;;;3.95;2.85;;;18.20;99.90;;;;;;5066295;28;20490;-56
2023/07/01 07:02:46;;;;;;;4.38;2.95;;;18.10;99.90;;;;;;5066705;28;20044;-56
2023/07/01 07:05:12;;;;;;;5.22;2.45;;;18.20;99.90;;;;;;5065617;28;20041;-56
2023/07/01 07:07:38;;;;;;;4.63;2.60;;;18.30;99.90;;;;;;5066657;28;20055;-56
2023/07/01 07:10:04;;;;;;;3.72;2.58;;;18.30;99.90;;;;;;5066584;28;20183;-56
2023/07/01 07:12:30;;;;;;;6.00;2.60;;;18.10;99.90;;;;;;5066734;28;20484;-56
2023/07/01 07:14:55;;;;;;;4.47;2.35;;;18.10;99.90;;;;;;5066202;28;20061;-56
2023/07/01 07:17:21;;;;;;;5.20;2.45;;;18.10;99.90;;;;;;5061785;28;20109;-56
2023/07/01 07:19:47;;;;;;;6.22;2.67;;;18.20;99.90;;;;;;5064009;28;20024;-57
2023/07/01 07:22:12;;;;;;;4.95;2.70;;;18.30;99.90;;;;;;5066114;28;20391;-56
2023/07/01 07:24:38;;;;;;;5.10;2.53;;;18.30;99.90;;;;;;5066299;28;20446;-56
2023/07/01 07:27:05;;;;;;;3.38;2.03;;;18.30;99.90;;;;;;5066121;28;20059;-56
2023/07/01 07:29:31;;;;;;;4.05;2.38;;;18.20;99.90;;;;;;5065675;28;20506;-56
2023/07/01 07:31:57;;;;;;;4.20;2.33;;;18.40;99.90;;;;;;5065964;28;20036;-56
2023/07/01 07:34:23;;;;;;;3.90;2.25;;;18.50;99.90;;;;;;5065690;28;20496;-56
2023/07/01 07:36:49;;;;;;;6.60;2.40;;;18.40;99.90;;;;;;5065660;28;20082;-56
2023/07/01 07:39:15;;;;;;;5.78;2.53;;;18.60;99.90;;;;;;5064737;28;20041;-56
2023/07/01 07:41:41;;;;;;;5.40;2.10;;;18.60;99.90;;;;;;5066194;28;20048;-56
2023/07/01 07:44:07;;;;;;;4.03;2.22;;;18.60;99.90;;;;;;5065293;28;20045;-56
2023/07/01 07:46:34;;;;;;;5.28;2.10;;;18.60;99.90;;;;;;5064478;28;20032;-56
2023/07/01 07:49:00;;;;;;;2.53;1.92;;;18.60;99.90;;;;;;5062262;28;20046;-56
2023/07/01 07:51:25;;;;;;;3.67;1.90;;;18.60;99.90;;;;;;5062774;28;20036;-56
2023/07/01 07:53:51;;;;;;;4.18;2.15;;;18.50;99.90;;;;;;5079130;28;20040;-56
2023/07/01 07:56:17;;;;;;;5.72;2.05;;;18.60;99.90;;;;;;5075477;28;20032;-56
2023/07/01 07:58:42;;;;;;;6.68;2.30;;;18.60;99.90;;;;;;5065745;28;20508;-57
2023/07/01 08:01:08;;;;;;;7.65;2.15;;;18.60;99.90;;;;;;5057776;28;20390;-57
2023/07/01 08:03:33;;;;;;;3.60;2.10;;;18.60;99.90;;;;;;5045697;28;20043;-56
2023/07/01 08:05:59;;;;;;;1.83;1.60;;;18.50;99.90;;;;;;5045460;28;20222;-56
2023/07/01 08:08:24;;;;;;;5.85;1.98;;;18.50;99.90;;;;;;5045664;28;20086;-56
2023/07/01 08:10:50;;;;;;;3.60;1.80;;;18.60;99.90;;;;;;5066039;28;20532;-56
2023/07/01 08:13:16;;;;;;;4.05;1.73;;;18.60;99.90;;;;;;5064724;28;20075;-57
2023/07/01 08:15:42;;;;;;;1.95;1.65;;;18.70;99.90;;;;;;5066539;28;20396;-57
2023/07/01 08:18:08;;;;;;;5.57;1.90;;;18.70;99.90;;;;;;5065245;28;20031;-56
2023/07/01 08:20:34;;;;;;;4.68;1.98;;;18.70;99.90;;;;;;5065887;28;20583;-56
2023/07/01 08:22:59;;;;;;;4.93;1.70;;;18.70;99.90;;;;;;5065081;28;20120;-56
2023/07/01 08:25:25;;;;;;;3.00;2.10;;;18.50;99.90;;;;;;5066108;28;20396;-55
2023/07/01 08:27:51;;;;;;;3.72;1.90;;;18.40;99.90;;;;;;5069835;28;20028;-56
2023/07/01 08:30:17;;;;;;;3.17;1.65;;;18.30;99.90;;;;;;5068859;28;20048;-56
2023/07/01 08:32:42;;;;;;;4.25;1.67;;;18.30;99.90;;;;;;5069382;28;20029;-56
2023/07/01 08:35:08;;;;;;;4.13;1.88;;;18.40;99.90;;;;;;5067769;28;20394;-55
2023/07/01 08:37:34;;;;;;;4.05;1.77;;;18.30;99.90;;;;;;5070089;28;20056;-55
2023/07/01 08:40:00;;;;;;;3.90;1.77;;;18.30;99.90;;;;;;5069605;28;20117;-55
2023/07/01 08:42:31;;;;;;;2.88;1.85;;;18.40;99.90;;;;;;5067564;28;20029;-55
2023/07/01 08:44:57;;;;;;;3.70;1.65;;;18.50;99.90;;;;;;5068109;28;20037;-55
2023/07/01 08:47:26;;;;;;;1.65;1.55;;;18.50;99.90;;;;;;5067668;28;20054;-55
2023/07/01 08:49:54;;;;;;;2.38;1.70;;;18.40;99.90;;;;;;5069469;28;20396;-55
2023/07/01 08:52:21;;;;;;;2.28;1.60;;;18.50;99.90;;;;;;5067464;28;20492;-55
2023/07/01 08:54:48;;;;;;;3.60;1.73;;;18.40;99.90;;;;;;5069114;28;20111;-55
2023/07/01 08:57:14;;;;;;;3.05;1.83;;;18.40;99.90;;;;;;5067480;28;20067;-55
2023/07/01 08:59:42;;;;;;;3.78;1.63;;;18.30;99.90;;;;;;5068605;28;20400;-56
2023/07/01 09:02:08;;;;;;;2.03;1.50;;;18.50;99.90;;;;;;5068497;28;20403;-55
2023/07/01 09:04:37;;;;;;;1.92;1.50;;;18.40;99.90;;;;;;5068630;28;20036;-55
2023/07/01 09:07:03;;;;;;;3.67;1.52;;;18.40;99.90;;;;;;5067892;28;20123;-56
2023/07/01 09:09:29;;;;;;;2.47;1.38;;;18.50;99.90;;;;;;5068552;28;20436;-60
2023/07/01 09:11:54;;;;;;;2.47;1.52;;;18.50;99.90;;;;;;5068508;28;20081;-55
2023/07/01 09:14:20;;;;;;;1.90;1.50;;;18.60;99.90;;;;;;5067959;28;20040;-55
2023/07/01 09:16:46;;;;;;;2.22;1.45;;;18.70;99.90;;;;;;5069741;28;20041;-55
2023/07/01 09:19:16;;;;;;;3.00;1.50;;;18.90;99.90;;;;;;5067643;28;20036;-56
2023/07/01 09:21:42;;;;;;;2.92;1.60;;;18.90;99.90;;;;;;5068653;28;20041;-56
2023/07/01 09:24:10;;;;;;;2.67;1.70;;;19.00;99.90;;;;;;5068207;28;20032;-56
2023/07/01 09:26:36;;;;;;;2.40;1.50;;;18.80;99.90;;;;;;5067959;28;20024;-56
2023/07/01 09:29:09;;;;;;;2.45;1.40;;;18.70;99.90;;;;;;5067108;28;20757;-55
2023/07/01 09:31:48;;;;;;;;;;;18.70;99.90;;;;;;5068390;28;20447;-56
2023/07/01 09:34:16;;;;;;;3.10;1.48;;;18.80;99.90;;;;;;5067637;28;19920;-55
2023/07/01 09:36:42;;;;;;;3.28;1.60;;;18.70;99.90;;;;;;5067862;28;20044;-56
2023/07/01 09:39:08;;;;;;;2.83;1.42;;;18.80;99.90;;;;;;5067110;28;20040;-55
2023/07/01 09:41:34;;;;;;;1.67;1.20;;;18.80;99.90;;;;;;5066929;28;20512;-56
2023/07/01 09:44:00;;;;;;;3.08;1.52;;;18.70;99.90;;;;;;5067948;28;20052;-56
2023/07/01 09:46:42;;;;;;;1.42;1.33;;;18.80;99.90;;;;;;5067134;28;20480;-55
2023/07/01 09:49:07;;;;;;;2.03;1.40;;;18.90;99.90;;;;;;5047464;28;20106;-55
2023/07/01 09:51:33;;;;;;;1.65;1.10;;;19.00;99.90;;;;;;5066802;28;20052;-56
2023/07/01 09:53:58;;;;;;;1.92;1.20;;;19.10;99.90;;;;;;5068193;28;20462;-55
2023/07/01 09:56:24;;;;;;;1.20;1.10;;;19.10;99.90;;;;;;5067409;28;20298;-55
2023/07/01 09:58:50;;;;;;;2.28;0.90;;;18.90;99.90;;;;;;5066977;28;20075;-56
2023/07/01 10:01:17;;;;;;;1.50;0.90;;;18.90;99.90;;;;;;5064238;28;20028;-55
2023/07/01 10:03:43;;;;;;;0.73;0.73;;;18.90;99.90;;;;;;5051936;28;20111;-55
2023/07/01 10:06:10;;;;;;;1.38;0.98;;;18.80;99.90;;;;;;5064861;28;20032;-55
2023/07/01 10:08:36;;;;;;;1.77;0.90;;;18.90;99.90;;;;;;5056535;28;20036;-55
2023/07/01 10:11:14;;;;;;;1.58;0.95;;;19.00;99.90;;;;;;5051269;28;20037;-55
2023/07/01 10:13:50;;;;;;;1.42;0.90;;;19.10;99.90;;;;;;5047420;28;20116;-56
2023/07/01 10:16:16;;;;;;;1.40;1.20;;;19.20;99.90;;;;;;5058308;28;20609;-55
2023/07/01 10:18:42;;;;;;;1.00;0.90;;;19.10;99.90;;;;;;5067127;28;20374;-56
2023/07/01 10:21:22;;;;;;;1.67;0.98;;;19.10;99.90;;;;;;5065975;28;20033;-55
2023/07/01 10:23:48;;;;;;;1.35;1.00;;;19.20;99.90;;;;;;5067407;28;20094;-56
2023/07/01 10:26:36;;;;;;;1.85;0.70;;;19.20;99.90;;;;;;5066641;28;20041;-56
2023/07/01 10:29:28;;;;;;;0.70;0.63;;;19.20;99.90;;;;;;5066681;28;20047;-57
2023/07/01 10:32:14;;;;;;;1.42;0.85;;;18.80;99.90;;;;;;5051676;28;20049;-56
2023/07/01 10:35:10;;;;;;;2.60;0.68;;;19.10;99.90;;;;;;5038883;28;20048;-56
2023/07/01 10:37:35;;;;;;;1.60;0.70;;;18.90;99.90;;;;;;5045956;28;20060;-55
2023/07/01 10:40:22;;;;;;;0.65;0.65;;;19.10;99.90;;;;;;5060225;28;20453;-56
2023/07/01 10:42:48;;;;;;;0.70;0.70;;;19.10;99.90;;;;;;5065573;28;20041;-56
2023/07/01 10:45:13;;;;;;;0.85;0.70;;;19.20;99.90;;;;;;5066913;28;20064;-56
2023/07/01 10:47:48;;;;;;;0.95;0.70;;;19.30;99.90;;;;;;5065084;28;20629;-56
2023/07/01 10:50:15;;;;;;;1.08;0.80;;;19.40;99.90;;;;;;5065720;28;20036;-56
2023/07/01 10:52:59;;;;;;;0.70;0.70;;;19.50;99.90;;;;;;5066736;28;20032;-56
2023/07/01 10:55:47;;;;;;;0.68;0.68;;;19.50;99.90;;;;;;5064888;28;20124;-56
2023/07/01 10:58:23;;;;;;;1.15;0.63;;;19.50;99.90;;;;;;5066581;28;20044;-56
2023/07/01 11:00:53;;;;;;;0.73;0.73;;;19.50;99.90;;;;;;5066534;28;20071;-56
2023/07/01 11:03:34;;;;;;;2.92;0.88;;;19.40;99.90;;;;;;5065420;28;20052;-57
2023/07/01 11:06:01;;;;;;;2.47;0.80;;;19.40;99.90;;;;;;5046370;28;20044;-56
2023/07/01 11:08:28;;;;;;;1.80;0.90;;;19.30;99.90;;;;;;5046311;28;20028;-57
2023/07/01 11:10:53;;;;;;;0.80;0.80;;;19.40;99.90;;;;;;5066470;28;20442;-57
2023/07/01 11:13:20;;;;;;;1.40;0.90;;;19.40;99.90;;;;;;5064647;28;20035;-56
2023/07/01 11:16:06;;;;;;;1.20;0.77;;;19.40;99.90;;;;;;5061016;28;20053;-56
2023/07/01 11:18:41;;;;;;;1.90;0.90;;;19.40;99.90;;;;;;5061498;28;20507;-58
2023/07/01 11:21:12;;;;;;;1.17;0.90;;;19.50;99.90;;;;;;5065910;28;20028;-56
2023/07/01 11:23:42;;;;;;;1.48;1.02;;;19.40;99.90;;;;;;5066587;28;20040;-56
2023/07/01 11:26:08;;;;;;;3.67;1.02;;;19.50;99.90;;;;;;5064758;28;20064;-56
2023/07/01 11:28:35;;;;;;;1.20;0.95;;;19.40;99.90;;;;;;5045962;28;20033;-56
2023/07/01 11:31:16;;;;;;;2.42;1.02;;;19.50;99.90;;;;;;5053530;28;20043;-56
2023/07/01 11:33:50;;;;;;;3.45;1.10;;;19.60;99.90;;;;;;5066062;28;20040;-56
2023/07/01 11:36:18;;;;;;;1.30;1.00;;;19.60;99.90;;;;;;5065363;28;20040;-56
2023/07/01 11:38:48;;;;;;;1.83;1.02;;;19.70;99.90;;;;;;5065207;27;20084;-56
2023/07/01 11:41:19;;;;;;;1.70;1.10;;;19.80;99.90;;;;;;5065382;28;20537;-56
2023/07/01 11:43:45;;;;;;;1.52;1.05;;;19.80;99.90;;;;;;5065158;28;20032;-56
2023/07/01 11:46:12;;;;;;;1.33;1.05;;;19.80;99.90;;;;;;5066015;28;20583;-56
2023/07/01 11:48:39;;;;;;;1.25;1.15;;;20.00;99.90;;;;;;5061894;28;20037;-56
2023/07/01 11:51:05;;;;;;;2.30;1.05;;;20.00;99.90;;;;;;5061465;28;20040;-56
2023/07/01 11:53:31;;;;;;;2.67;1.10;;;19.90;99.90;;;;;;5065757;28;20719;-56
2023/07/01 11:55:58;;;;;;;2.72;1.10;;;19.90;99.90;;;;;;5065565;28;20536;-56
2023/07/01 11:58:32;;;;;;;2.20;1.20;;;20.00;99.90;;;;;;5065633;28;20067;-56
2023/07/01 12:00:58;;;;;;;1.35;1.00;;;20.10;99.90;;;;;;5066419;28;20488;-56
2023/07/01 12:03:24;;;;;;;5.45;1.10;;;20.20;99.90;;;;;;5069127;28;20453;-56
2023/07/01 12:05:51;;;;;;;2.28;1.20;;;20.10;99.90;;;;;;5069589;28;20049;-56
2023/07/01 12:08:16;;;;;;;2.13;1.50;;;20.20;99.90;;;;;;5069232;28;20047;-56
2023/07/01 12:10:42;;;;;;;1.80;1.60;;;20.20;99.90;;;;;;5067697;28;20484;-56
2023/07/01 12:13:21;;;;;;;1.73;1.52;;;20.30;99.90;;;;;;5069673;28;20028;-56
2023/07/01 12:15:55;;;;;;;6.80;2.03;;;20.30;99.90;;;;;;5069918;28;20532;-56
2023/07/01 12:18:33;;;;;;;1.75;1.50;;;20.30;99.90;;;;;;5068899;28;20127;-56
2023/07/01 12:20:58;;;;;;;2.38;1.60;;;20.30;99.90;;;;;;5069627;28;20032;-56
2023/07/01 12:23:24;;;;;;;2.55;1.88;;;20.30;99.90;;;;;;5068618;28;20360;-55
2023/07/01 12:25:50;;;;;;;3.15;1.85;;;20.30;99.90;;;;;;5069315;28;20028;-56
2023/07/01 12:28:18;;;;;;;5.32;1.80;;;;;;;;;;5069193;28;20032;-56
2023/07/01 12:30:43;;;;;;;3.78;1.83;;;20.70;99.90;;;;;;5069041;28;20033;-56
2023/07/01 12:33:10;;;;;;;2.17;1.90;;;20.90;99.90;;;;;;5068065;28;20037;-56
2023/07/01 12:35:35;;;;;;;1.70;1.60;;;21.00;99.90;;;;;;5069253;28;20021;-56
2023/07/01 12:38:03;;;;;;;2.05;1.85;;;21.20;99.90;;;;;;5069359;28;20112;-56
2023/07/01 12:40:29;;;;;;;3.17;1.90;;;21.20;99.90;;;;;;5069071;28;20036;-56
2023/07/01 12:42:54;;;;;;;2.42;1.60;;;21.40;99.90;;;;;;5068673;28;20388;-56
2023/07/01 12:45:20;;;;;;;1.70;1.50;;;21.40;99.90;;;;;;5068235;28;20024;-56
2023/07/01 12:47:46;;;;;;;1.48;1.30;;;21.50;99.90;;;;;;5069376;28;20550;-56
2023/07/01 12:50:12;;;;;;;2.63;1.50;;;21.60;99.90;;;;;;5068407;28;20028;-56